sensor_id;sensor_type;location;lat;lon;timestamp;temperature;humidity
9760;DHT22;4919;48.792;9.202;2022-12-18T00:03:52;-5.80;99.90
9760;DHT22;4919;48.792;9.202;2022-12-18T00:06:20;-6.00;99.90
9760;DHT22;4919;48.792;9.202;2022-12-18T00:08:47;-5.90;99.90
9760;DHT22;4919;48.792;9.202;2022-12-18T00:11:19;-5.90;99.90
9760;DHT22;4919;48.792;9.202;2022-12-18T00:13:47;-6.00;99.90
9760;DHT22;4919;48.792;9.202;2022-12-18T00:16:16;-5.90;99.90
9760;DHT22;4919;48.792;9.202;2022-12-18T00:18:45;-6.00;99.90
9760;DHT22;4919;48.792;9.202;2022-12-18T00:21:12;-6.00;99.90
9760;DHT22;4919;48.792;9.202;2022-12-18T00:23:41;-6.00;99.90
9760;DHT22;4919;48.792;9.202;2022-12-18T00:26:14;-6.00;99.90
9760;DHT22;4919;48.792;9.202;2022-12-18T00:28:43;-6.00;99.90
9760;DHT22;4919;48.792;9.202;2022-12-18T00:31:13;-6.00;99.90
9760;DHT22;4919;48.792;9.202;2022-12-18T00:33:40;-5.90;99.90
9760;DHT22;4919;48.792;9.202;2022-12-18T00:36:11;-5.90;99.90
9760;DHT22;4919;48.792;9.202;2022-12-18T00:38:39;-5.90;99.90
9760;DHT22;4919;48.792;9.202;2022-12-18T00:41:07;-6.00;99.90
9760;DHT22;4919;48.792;9.202;2022-12-18T00:43:36;-6.00;99.90
9760;DHT22;4919;48.792;9.202;2022-12-18T00:46:04;-6.00;99.90
9760;DHT22;4919;48.792;9.202;2022-12-18T00:48:31;-6.00;99.90
9760;DHT22;4919;48.792;9.202;2022-12-18T00:50:58;-6.10;99.90
9760;DHT22;4919;48.792;9.202;2022-12-18T00:53:25;-6.00;99.90
9760;DHT22;4919;48.792;9.202;2022-12-18T00:55:52;-6.00;99.90
9760;DHT22;4919;48.792;9.202;2022-12-18T00:58:19;-6.00;99.90
9760;DHT22;4919;48.792;9.202;2022-12-18T01:00:45;-6.10;99.90
9760;DHT22;4919;48.792;9.202;2022-12-18T01:03:14;-6.00;99.90
9760;DHT22;4919;48.792;9.202;2022-12-18T01:05:43;-6.00;99.90
9760;DHT22;4919;48.792;9.202;2022-12-18T01:08:10;-6.00;99.90
9760;DHT22;4919;48.792;9.202;2022-12-18T01:10:40;-6.00;99.90
9760;DHT22;4919;48.792;9.202;2022-12-18T01:13:08;-6.00;99.90
9760;DHT22;4919;48.792;9.202;2022-12-18T01:15:35;-6.00;99.90
9760;DHT22;4919;48.792;9.202;2022-12-18T01:18:02;-6.20;99.90
9760;DHT22;4919;48.792;9.202;2022-12-18T01:20:32;-6.10;99.90
9760;DHT22;4919;48.792;9.202;2022-12-18T01:22:59;-6.20;99.90
9760;DHT22;4919;48.792;9.202;2022-12-18T01:25:26;-6.00;99.90
9760;DHT22;4919;48.792;9.202;2022-12-18T01:27:53;-6.20;99.90
9760;DHT22;4919;48.792;9.202;2022-12-18T01:30:19;-6.20;99.90
9760;DHT22;4919;48.792;9.202;2022-12-18T01:32:46;-6.20;99.90
9760;DHT22;4919;48.792;9.202;2022-12-18T01:35:13;-6.30;99.90
9760;DHT22;4919;48.792;9.202;2022-12-18T01:37:40;-6.30;99.90
9760;DHT22;4919;48.792;9.202;2022-12-18T01:40:07;-6.20;99.90
9760;DHT22;4919;48.792;9.202;2022-12-18T01:42:34;-6.20;99.90
9760;DHT22;4919;48.792;9.202;2022-12-18T01:45:06;-6.20;99.90
9760;DHT22;4919;48.792;9.202;2022-12-18T01:52:38;-6.20;99.90
9760;DHT22;4919;48.792;9.202;2022-12-18T01:55:07;-6.20;99.90
9760;DHT22;4919;48.792;9.202;2022-12-18T01:57:35;-6.20;99.90
9760;DHT22;4919;48.792;9.202;2022-12-18T02:00:13;-6.10;99.90
9760;DHT22;4919;48.792;9.202;2022-12-18T02:02:44;-6.30;99.90
9760;DHT22;4919;48.792;9.202;2022-12-18T02:10:02;-6.50;99.90
9760;DHT22;4919;48.792;9.202;2022-12-18T02:13:02;-6.50;99.90
9760;DHT22;4919;48.792;9.202;2022-12-18T02:15:57;-6.50;99.90
9760;DHT22;4919;48.792;9.202;2022-12-18T02:18:40;-6.50;99.90
9760;DHT22;4919;48.792;9.202;2022-12-18T02:26:35;-6.40;99.90
9760;DHT22;4919;48.792;9.202;2022-12-18T02:29:11;-6.30;99.90
9760;DHT22;4919;48.792;9.202;2022-12-18T02:32:06;-6.30;99.90
9760;DHT22;4919;48.792;9.202;2022-12-18T02:34:39;-6.20;99.90
9760;DHT22;4919;48.792;9.202;2022-12-18T02:37:14;-6.30;99.90
9760;DHT22;4919;48.792;9.202;2022-12-18T02:39:43;-6.20;99.90
9760;DHT22;4919;48.792;9.202;2022-12-18T02:42:12;-6.40;99.90
9760;DHT22;4919;48.792;9.202;2022-12-18T02:44:50;-6.40;99.90
9760;DHT22;4919;48.792;9.202;2022-12-18T02:47:24;-6.50;99.90
9760;DHT22;4919;48.792;9.202;2022-12-18T02:50:44;-6.50;99.90
9760;DHT22;4919;48.792;9.202;2022-12-18T02:53:03;-6.40;99.90
9760;DHT22;4919;48.792;9.202;2022-12-18T02:56:09;-6.40;99.90
9760;DHT22;4919;48.792;9.202;2022-12-18T02:58:49;-6.40;99.90
9760;DHT22;4919;48.792;9.202;2022-12-18T03:02:31;-6.40;99.90
9760;DHT22;4919;48.792;9.202;2022-12-18T03:04:46;-6.40;99.90
9760;DHT22;4919;48.792;9.202;2022-12-18T03:07:19;-6.30;99.90
9760;DHT22;4919;48.792;9.202;2022-12-18T03:09:50;-6.30;99.90
9760;DHT22;4919;48.792;9.202;2022-12-18T03:12:24;-6.30;99.90
9760;DHT22;4919;48.792;9.202;2022-12-18T03:17:32;-6.20;99.90
9760;DHT22;4919;48.792;9.202;2022-12-18T03:20:06;-6.30;99.90
9760;DHT22;4919;48.792;9.202;2022-12-18T03:22:35;-6.30;99.90
9760;DHT22;4919;48.792;9.202;2022-12-18T03:25:06;-6.30;99.90
9760;DHT22;4919;48.792;9.202;2022-12-18T03:27:38;-6.20;99.90
9760;DHT22;4919;48.792;9.202;2022-12-18T03:30:12;-6.40;99.90
9760;DHT22;4919;48.792;9.202;2022-12-18T03:32:44;-6.30;99.90
9760;DHT22;4919;48.792;9.202;2022-12-18T03:35:20;-6.40;99.90
9760;DHT22;4919;48.792;9.202;2022-12-18T03:37:49;-6.40;99.90
9760;DHT22;4919;48.792;9.202;2022-12-18T03:40:16;-6.40;99.90
9760;DHT22;4919;48.792;9.202;2022-12-18T03:42:51;-6.40;99.90
9760;DHT22;4919;48.792;9.202;2022-12-18T03:45:27;-6.50;99.90
9760;DHT22;4919;48.792;9.202;2022-12-18T03:50:53;-6.60;99.90
9760;DHT22;4919;48.792;9.202;2022-12-18T03:56:03;-6.50;99.90
9760;DHT22;4919;48.792;9.202;2022-12-18T03:58:37;-6.60;99.90
9760;DHT22;4919;48.792;9.202;2022-12-18T04:01:16;-6.70;99.90
9760;DHT22;4919;48.792;9.202;2022-12-18T04:03:46;-6.60;99.90
9760;DHT22;4919;48.792;9.202;2022-12-18T04:06:18;-6.70;99.90
9760;DHT22;4919;48.792;9.202;2022-12-18T04:08:46;-6.70;99.90
9760;DHT22;4919;48.792;9.202;2022-12-18T04:11:17;-6.60;99.90
9760;DHT22;4919;48.792;9.202;2022-12-18T04:13:45;-6.60;99.90
9760;DHT22;4919;48.792;9.202;2022-12-18T04:16:20;-6.70;99.90
9760;DHT22;4919;48.792;9.202;2022-12-18T04:18:50;-6.70;99.90
9760;DHT22;4919;48.792;9.202;2022-12-18T04:21:19;-6.70;99.90
9760;DHT22;4919;48.792;9.202;2022-12-18T04:23:47;-6.80;99.90
9760;DHT22;4919;48.792;9.202;2022-12-18T04:26:17;-6.80;99.90
9760;DHT22;4919;48.792;9.202;2022-12-18T04:29:03;-6.70;99.90
9760;DHT22;4919;48.792;9.202;2022-12-18T04:31:30;-6.70;99.90
9760;DHT22;4919;48.792;9.202;2022-12-18T04:33:57;-6.70;99.90
9760;DHT22;4919;48.792;9.202;2022-12-18T04:36:27;-6.60;99.90
9760;DHT22;4919;48.792;9.202;2022-12-18T04:38:55;-6.50;99.90
9760;DHT22;4919;48.792;9.202;2022-12-18T04:41:22;-6.60;99.90
9760;DHT22;4919;48.792;9.202;2022-12-18T04:43:51;-6.70;99.90
9760;DHT22;4919;48.792;9.202;2022-12-18T04:46:18;-6.70;99.90
9760;DHT22;4919;48.792;9.202;2022-12-18T04:48:46;-6.70;99.90
9760;DHT22;4919;48.792;9.202;2022-12-18T04:51:13;-6.70;99.90
9760;DHT22;4919;48.792;9.202;2022-12-18T04:53:40;-6.80;99.90
9760;DHT22;4919;48.792;9.202;2022-12-18T04:56:12;-6.70;99.90
9760;DHT22;4919;48.792;9.202;2022-12-18T04:58:41;-6.70;99.90
9760;DHT22;4919;48.792;9.202;2022-12-18T05:01:09;-6.60;99.90
9760;DHT22;4919;48.792;9.202;2022-12-18T05:03:36;-6.70;99.90
9760;DHT22;4919;48.792;9.202;2022-12-18T05:06:05;-6.60;99.90
9760;DHT22;4919;48.792;9.202;2022-12-18T05:08:32;-6.50;99.90
9760;DHT22;4919;48.792;9.202;2022-12-18T05:11:04;-6.60;99.90
9760;DHT22;4919;48.792;9.202;2022-12-18T05:13:32;-6.60;99.90
9760;DHT22;4919;48.792;9.202;2022-12-18T05:15:59;-6.50;99.90
9760;DHT22;4919;48.792;9.202;2022-12-18T05:18:26;-6.40;99.90
9760;DHT22;4919;48.792;9.202;2022-12-18T05:20:53;-6.40;99.90
9760;DHT22;4919;48.792;9.202;2022-12-18T05:23:22;-6.40;99.90
9760;DHT22;4919;48.792;9.202;2022-12-18T05:25:58;-6.40;99.90
9760;DHT22;4919;48.792;9.202;2022-12-18T05:28:26;-6.30;99.90
9760;DHT22;4919;48.792;9.202;2022-12-18T05:30:56;-6.40;99.90
9760;DHT22;4919;48.792;9.202;2022-12-18T05:33:26;-6.50;99.90
9760;DHT22;4919;48.792;9.202;2022-12-18T05:35:55;-6.50;99.90
9760;DHT22;4919;48.792;9.202;2022-12-18T05:38:23;-6.50;99.90
9760;DHT22;4919;48.792;9.202;2022-12-18T05:40:51;-6.50;99.90
9760;DHT22;4919;48.792;9.202;2022-12-18T05:43:19;-6.50;99.90
9760;DHT22;4919;48.792;9.202;2022-12-18T05:45:48;-6.40;99.90
9760;DHT22;4919;48.792;9.202;2022-12-18T05:48:15;-6.40;99.90
9760;DHT22;4919;48.792;9.202;2022-12-18T05:50:44;-6.40;99.90
9760;DHT22;4919;48.792;9.202;2022-12-18T05:53:15;-6.30;99.90
9760;DHT22;4919;48.792;9.202;2022-12-18T05:55:43;-6.40;99.90
9760;DHT22;4919;48.792;9.202;2022-12-18T05:58:12;-6.40;99.90
9760;DHT22;4919;48.792;9.202;2022-12-18T06:00:44;-6.40;99.90
9760;DHT22;4919;48.792;9.202;2022-12-18T06:03:12;-6.40;99.90
9760;DHT22;4919;48.792;9.202;2022-12-18T06:05:42;-6.40;99.90
9760;DHT22;4919;48.792;9.202;2022-12-18T06:08:09;-6.40;99.90
9760;DHT22;4919;48.792;9.202;2022-12-18T06:10:37;-6.40;99.90
9760;DHT22;4919;48.792;9.202;2022-12-18T06:13:05;-6.40;99.90
9760;DHT22;4919;48.792;9.202;2022-12-18T06:15:33;-6.40;99.90
9760;DHT22;4919;48.792;9.202;2022-12-18T06:18:02;-6.30;99.90
9760;DHT22;4919;48.792;9.202;2022-12-18T06:20:32;-6.30;99.90
9760;DHT22;4919;48.792;9.202;2022-12-18T06:23:00;-6.30;99.90
9760;DHT22;4919;48.792;9.202;2022-12-18T06:25:26;-6.30;99.90
9760;DHT22;4919;48.792;9.202;2022-12-18T06:27:53;-6.20;99.90
9760;DHT22;4919;48.792;9.202;2022-12-18T06:30:20;-6.20;99.90
9760;DHT22;4919;48.792;9.202;2022-12-18T06:32:50;-6.10;99.90
9760;DHT22;4919;48.792;9.202;2022-12-18T06:35:23;-6.20;99.90
9760;DHT22;4919;48.792;9.202;2022-12-18T06:37:50;-6.20;99.90
9760;DHT22;4919;48.792;9.202;2022-12-18T06:40:17;-6.10;99.90
9760;DHT22;4919;48.792;9.202;2022-12-18T06:42:44;-6.10;99.90
9760;DHT22;4919;48.792;9.202;2022-12-18T06:45:11;-6.20;99.90
9760;DHT22;4919;48.792;9.202;2022-12-18T06:47:41;-6.20;99.90
9760;DHT22;4919;48.792;9.202;2022-12-18T06:50:08;-6.20;99.90
9760;DHT22;4919;48.792;9.202;2022-12-18T06:52:34;-6.10;99.90
9760;DHT22;4919;48.792;9.202;2022-12-18T06:55:01;-6.10;99.90
9760;DHT22;4919;48.792;9.202;2022-12-18T06:57:28;-6.10;99.90
9760;DHT22;4919;48.792;9.202;2022-12-18T06:59:55;-6.10;99.90
9760;DHT22;4919;48.792;9.202;2022-12-18T07:02:21;-6.10;99.90
9760;DHT22;4919;48.792;9.202;2022-12-18T07:04:52;-6.00;99.90
9760;DHT22;4919;48.792;9.202;2022-12-18T07:07:18;-6.10;99.90
9760;DHT22;4919;48.792;9.202;2022-12-18T07:09:45;-6.10;99.90
9760;DHT22;4919;48.792;9.202;2022-12-18T07:12:12;-6.10;99.90
9760;DHT22;4919;48.792;9.202;2022-12-18T07:14:39;-6.10;99.90
9760;DHT22;4919;48.792;9.202;2022-12-18T07:17:05;-6.10;99.90
9760;DHT22;4919;48.792;9.202;2022-12-18T07:19:33;-6.00;99.90
9760;DHT22;4919;48.792;9.202;2022-12-18T07:22:00;-6.10;99.90
9760;DHT22;4919;48.792;9.202;2022-12-18T07:24:28;-6.10;99.90
9760;DHT22;4919;48.792;9.202;2022-12-18T07:26:55;-6.10;99.90
9760;DHT22;4919;48.792;9.202;2022-12-18T07:29:21;-6.00;99.90
9760;DHT22;4919;48.792;9.202;2022-12-18T07:31:48;-6.00;99.90
9760;DHT22;4919;48.792;9.202;2022-12-18T07:34:15;-5.90;99.90
9760;DHT22;4919;48.792;9.202;2022-12-18T07:36:42;-5.90;99.90
9760;DHT22;4919;48.792;9.202;2022-12-18T07:39:11;-5.90;99.90
9760;DHT22;4919;48.792;9.202;2022-12-18T07:41:38;-5.80;99.90
9760;DHT22;4919;48.792;9.202;2022-12-18T07:44:12;-5.80;99.90
9760;DHT22;4919;48.792;9.202;2022-12-18T07:46:39;-5.90;99.90
9760;DHT22;4919;48.792;9.202;2022-12-18T07:49:06;-5.80;99.90
9760;DHT22;4919;48.792;9.202;2022-12-18T07:51:33;-5.70;99.90
9760;DHT22;4919;48.792;9.202;2022-12-18T07:54:00;-5.80;99.90
9760;DHT22;4919;48.792;9.202;2022-12-18T07:56:26;-5.70;99.90
9760;DHT22;4919;48.792;9.202;2022-12-18T07:58:56;-5.80;99.90
9760;DHT22;4919;48.792;9.202;2022-12-18T08:01:23;-5.80;99.90
9760;DHT22;4919;48.792;9.202;2022-12-18T08:03:51;-5.80;99.90
9760;DHT22;4919;48.792;9.202;2022-12-18T08:06:19;-5.80;99.90
9760;DHT22;4919;48.792;9.202;2022-12-18T08:08:53;-5.70;99.90
9760;DHT22;4919;48.792;9.202;2022-12-18T08:11:22;-5.60;99.90
9760;DHT22;4919;48.792;9.202;2022-12-18T08:13:49;-5.70;99.90
9760;DHT22;4919;48.792;9.202;2022-12-18T08:16:17;-5.60;99.90
9760;DHT22;4919;48.792;9.202;2022-12-18T08:18:45;-5.70;99.90
9760;DHT22;4919;48.792;9.202;2022-12-18T08:21:20;-5.70;99.90
9760;DHT22;4919;48.792;9.202;2022-12-18T08:23:50;-5.60;99.90
9760;DHT22;4919;48.792;9.202;2022-12-18T08:26:18;-5.70;99.90
9760;DHT22;4919;48.792;9.202;2022-12-18T08:28:46;-5.80;99.90
9760;DHT22;4919;48.792;9.202;2022-12-18T08:31:13;-5.80;99.90
9760;DHT22;4919;48.792;9.202;2022-12-18T08:33:41;-5.80;99.90
9760;DHT22;4919;48.792;9.202;2022-12-18T08:36:09;-5.70;99.90
9760;DHT22;4919;48.792;9.202;2022-12-18T08:38:36;-5.80;99.90
9760;DHT22;4919;48.792;9.202;2022-12-18T08:41:05;-5.70;99.90
9760;DHT22;4919;48.792;9.202;2022-12-18T08:43:33;-5.80;99.90
9760;DHT22;4919;48.792;9.202;2022-12-18T08:46:19;-5.80;99.90
9760;DHT22;4919;48.792;9.202;2022-12-18T08:48:47;-5.80;99.90
9760;DHT22;4919;48.792;9.202;2022-12-18T08:51:16;-5.80;99.90
9760;DHT22;4919;48.792;9.202;2022-12-18T08:53:44;-5.80;99.90
9760;DHT22;4919;48.792;9.202;2022-12-18T08:56:11;-5.70;99.90
9760;DHT22;4919;48.792;9.202;2022-12-18T08:58:40;-5.60;99.90
9760;DHT22;4919;48.792;9.202;2022-12-18T09:01:09;-5.60;99.90
9760;DHT22;4919;48.792;9.202;2022-12-18T09:03:37;-5.70;99.90
9760;DHT22;4919;48.792;9.202;2022-12-18T09:06:05;-5.60;99.90
9760;DHT22;4919;48.792;9.202;2022-12-18T09:08:35;-5.40;99.90
9760;DHT22;4919;48.792;9.202;2022-12-18T09:11:23;-5.50;99.90
9760;DHT22;4919;48.792;9.202;2022-12-18T09:13:50;-5.50;99.90
9760;DHT22;4919;48.792;9.202;2022-12-18T09:16:18;-5.30;99.90
9760;DHT22;4919;48.792;9.202;2022-12-18T09:18:46;-5.30;99.90
9760;DHT22;4919;48.792;9.202;2022-12-18T09:21:16;-5.30;99.90
9760;DHT22;4919;48.792;9.202;2022-12-18T09:23:45;-5.40;99.90
9760;DHT22;4919;48.792;9.202;2022-12-18T09:26:15;-5.40;99.90
9760;DHT22;4919;48.792;9.202;2022-12-18T09:28:42;-5.30;99.90
9760;DHT22;4919;48.792;9.202;2022-12-18T09:31:14;-5.30;99.90
9760;DHT22;4919;48.792;9.202;2022-12-18T09:33:41;-5.30;99.90
9760;DHT22;4919;48.792;9.202;2022-12-18T09:36:16;-5.30;99.90
9760;DHT22;4919;48.792;9.202;2022-12-18T09:38:43;-5.30;99.90
9760;DHT22;4919;48.792;9.202;2022-12-18T09:47:13;-5.10;99.90
9760;DHT22;4919;48.792;9.202;2022-12-18T09:49:53;-5.20;99.90
9760;DHT22;4919;48.792;9.202;2022-12-18T09:55:08;-5.00;99.90
9760;DHT22;4919;48.792;9.202;2022-12-18T09:57:40;-5.00;99.90
9760;DHT22;4919;48.792;9.202;2022-12-18T10:00:23;-5.00;99.90
9760;DHT22;4919;48.792;9.202;2022-12-18T10:03:03;-4.90;99.90
9760;DHT22;4919;48.792;9.202;2022-12-18T10:11:28;-4.70;99.90
9760;DHT22;4919;48.792;9.202;2022-12-18T10:19:36;-4.50;99.90
9760;DHT22;4919;48.792;9.202;2022-12-18T10:27:41;-4.30;99.90
9760;DHT22;4919;48.792;9.202;2022-12-18T10:30:17;-4.30;99.90
9760;DHT22;4919;48.792;9.202;2022-12-18T10:32:44;-4.30;99.90
9760;DHT22;4919;48.792;9.202;2022-12-18T10:35:23;-4.30;99.90
9760;DHT22;4919;48.792;9.202;2022-12-18T10:38:26;-4.30;99.90
9760;DHT22;4919;48.792;9.202;2022-12-18T10:41:02;-4.20;99.90
9760;DHT22;4919;48.792;9.202;2022-12-18T10:43:34;-4.30;99.90
9760;DHT22;4919;48.792;9.202;2022-12-18T10:51:23;-4.40;99.90
9760;DHT22;4919;48.792;9.202;2022-12-18T10:54:04;-4.30;99.90
9760;DHT22;4919;48.792;9.202;2022-12-18T10:56:34;-4.30;99.90
9760;DHT22;4919;48.792;9.202;2022-12-18T10:59:07;-4.30;99.90
9760;DHT22;4919;48.792;9.202;2022-12-18T11:01:55;-4.20;99.90
9760;DHT22;4919;48.792;9.202;2022-12-18T11:04:28;-4.20;99.90
9760;DHT22;4919;48.792;9.202;2022-12-18T11:07:08;-4.10;99.90
9760;DHT22;4919;48.792;9.202;2022-12-18T11:09:39;-4.20;99.90
9760;DHT22;4919;48.792;9.202;2022-12-18T11:12:17;-4.10;99.90
9760;DHT22;4919;48.792;9.202;2022-12-18T11:14:50;-4.10;99.90
9760;DHT22;4919;48.792;9.202;2022-12-18T11:17:32;-4.00;99.90
9760;DHT22;4919;48.792;9.202;2022-12-18T11:20:31;-3.90;99.90
9760;DHT22;4919;48.792;9.202;2022-12-18T11:23:10;-4.00;99.90
9760;DHT22;4919;48.792;9.202;2022-12-18T11:25:39;-4.00;99.90
9760;DHT22;4919;48.792;9.202;2022-12-18T11:28:44;-4.10;99.90
9760;DHT22;4919;48.792;9.202;2022-12-18T11:33:44;-4.10;99.90
9760;DHT22;4919;48.792;9.202;2022-12-18T11:36:38;-4.20;99.90
9760;DHT22;4919;48.792;9.202;2022-12-18T11:39:15;-4.10;99.90
9760;DHT22;4919;48.792;9.202;2022-12-18T11:41:50;-4.00;99.90
9760;DHT22;4919;48.792;9.202;2022-12-18T11:47:56;-3.90;99.90
9760;DHT22;4919;48.792;9.202;2022-12-18T11:53:03;-4.00;99.90
9760;DHT22;4919;48.792;9.202;2022-12-18T12:12:39;-3.90;99.90
9760;DHT22;4919;48.792;9.202;2022-12-18T12:26:13;-3.80;99.90
9760;DHT22;4919;48.792;9.202;2022-12-18T12:29:07;-3.80;99.90
9760;DHT22;4919;48.792;9.202;2022-12-18T12:34:26;-3.70;99.90
9760;DHT22;4919;48.792;9.202;2022-12-18T12:41:22;-3.70;99.90
9760;DHT22;4919;48.792;9.202;2022-12-18T12:44:22;-3.70;99.90
9760;DHT22;4919;48.792;9.202;2022-12-18T12:46:52;-3.70;99.90
9760;DHT22;4919;48.792;9.202;2022-12-18T12:49:26;-3.80;99.90
9760;DHT22;4919;48.792;9.202;2022-12-18T12:52:15;-3.80;99.90
9760;DHT22;4919;48.792;9.202;2022-12-18T12:54:44;-3.80;99.90
9760;DHT22;4919;48.792;9.202;2022-12-18T12:57:34;-3.80;99.90
9760;DHT22;4919;48.792;9.202;2022-12-18T13:05:32;-3.80;99.90
9760;DHT22;4919;48.792;9.202;2022-12-18T13:08:04;-3.80;99.90
9760;DHT22;4919;48.792;9.202;2022-12-18T13:10:39;-3.80;99.90
9760;DHT22;4919;48.792;9.202;2022-12-18T13:15:44;-3.80;99.90
9760;DHT22;4919;48.792;9.202;2022-12-18T13:18:23;-3.90;99.90
9760;DHT22;4919;48.792;9.202;2022-12-18T13:23:30;-3.80;99.90
9760;DHT22;4919;48.792;9.202;2022-12-18T13:33:41;-3.90;99.90
9760;DHT22;4919;48.792;9.202;2022-12-18T13:36:31;-3.90;99.90
9760;DHT22;4919;48.792;9.202;2022-12-18T13:44:37;-3.80;99.90
9760;DHT22;4919;48.792;9.202;2022-12-18T13:49:53;-3.90;99.90
9760;DHT22;4919;48.792;9.202;2022-12-18T13:52:28;-3.90;99.90
9760;DHT22;4919;48.792;9.202;2022-12-18T13:55:02;-4.00;99.90
9760;DHT22;4919;48.792;9.202;2022-12-18T13:57:33;-4.10;99.90
9760;DHT22;4919;48.792;9.202;2022-12-18T14:02:49;-4.00;99.90
9760;DHT22;4919;48.792;9.202;2022-12-18T14:05:33;-4.00;99.90
9760;DHT22;4919;48.792;9.202;2022-12-18T14:08:08;-4.00;99.90
9760;DHT22;4919;48.792;9.202;2022-12-18T14:10:41;-3.90;99.90
9760;DHT22;4919;48.792;9.202;2022-12-18T14:13:20;-4.00;99.90
9760;DHT22;4919;48.792;9.202;2022-12-18T14:15:49;-4.10;99.90
9760;DHT22;4919;48.792;9.202;2022-12-18T14:20:59;-4.10;99.90
9760;DHT22;4919;48.792;9.202;2022-12-18T14:23:32;-4.10;99.90
9760;DHT22;4919;48.792;9.202;2022-12-18T14:26:00;-4.10;99.90
9760;DHT22;4919;48.792;9.202;2022-12-18T14:28:32;-4.10;99.90
9760;DHT22;4919;48.792;9.202;2022-12-18T14:30:59;-4.10;99.90
9760;DHT22;4919;48.792;9.202;2022-12-18T14:33:28;-3.90;99.90
9760;DHT22;4919;48.792;9.202;2022-12-18T14:36:03;-4.00;99.90
9760;DHT22;4919;48.792;9.202;2022-12-18T14:38:36;-4.00;99.90
9760;DHT22;4919;48.792;9.202;2022-12-18T14:41:09;-3.90;99.90
9760;DHT22;4919;48.792;9.202;2022-12-18T14:43:38;-4.00;99.90
9760;DHT22;4919;48.792;9.202;2022-12-18T14:46:35;-4.00;99.90
9760;DHT22;4919;48.792;9.202;2022-12-18T14:49:05;-4.00;99.90
9760;DHT22;4919;48.792;9.202;2022-12-18T14:51:53;-4.10;99.90
9760;DHT22;4919;48.792;9.202;2022-12-18T14:54:22;-4.20;99.90
9760;DHT22;4919;48.792;9.202;2022-12-18T14:56:56;-4.20;99.90
9760;DHT22;4919;48.792;9.202;2022-12-18T14:59:26;-4.30;99.90
9760;DHT22;4919;48.792;9.202;2022-12-18T15:04:39;-4.30;99.90
9760;DHT22;4919;48.792;9.202;2022-12-18T15:07:15;-4.30;99.90
9760;DHT22;4919;48.792;9.202;2022-12-18T15:12:34;-4.40;99.90
9760;DHT22;4919;48.792;9.202;2022-12-18T15:15:02;-4.30;99.90
9760;DHT22;4919;48.792;9.202;2022-12-18T15:17:29;-4.30;99.90
9760;DHT22;4919;48.792;9.202;2022-12-18T15:20:09;-4.30;99.90
9760;DHT22;4919;48.792;9.202;2022-12-18T15:22:37;-4.30;99.90
9760;DHT22;4919;48.792;9.202;2022-12-18T15:25:32;-4.30;99.90
9760;DHT22;4919;48.792;9.202;2022-12-18T15:28:00;-4.30;99.90
9760;DHT22;4919;48.792;9.202;2022-12-18T15:30:27;-4.20;99.90
9760;DHT22;4919;48.792;9.202;2022-12-18T15:33:24;-4.30;99.90
9760;DHT22;4919;48.792;9.202;2022-12-18T15:35:59;-4.20;99.90
9760;DHT22;4919;48.792;9.202;2022-12-18T15:38:26;-4.30;99.90
9760;DHT22;4919;48.792;9.202;2022-12-18T15:40:53;-4.30;99.90
9760;DHT22;4919;48.792;9.202;2022-12-18T15:43:24;-4.30;99.90
9760;DHT22;4919;48.792;9.202;2022-12-18T15:48:38;-4.30;99.90
9760;DHT22;4919;48.792;9.202;2022-12-18T15:51:12;-4.30;99.90
9760;DHT22;4919;48.792;9.202;2022-12-18T15:53:40;-4.30;99.90
9760;DHT22;4919;48.792;9.202;2022-12-18T15:56:12;-4.30;99.90
9760;DHT22;4919;48.792;9.202;2022-12-18T15:58:58;-4.30;99.90
9760;DHT22;4919;48.792;9.202;2022-12-18T16:01:27;-4.30;99.90
9760;DHT22;4919;48.792;9.202;2022-12-18T16:03:54;-4.20;99.90
9760;DHT22;4919;48.792;9.202;2022-12-18T16:06:22;-4.30;99.90
9760;DHT22;4919;48.792;9.202;2022-12-18T16:08:49;-4.30;99.90
9760;DHT22;4919;48.792;9.202;2022-12-18T16:11:28;-4.30;99.90
9760;DHT22;4919;48.792;9.202;2022-12-18T16:14:22;-4.30;99.90
9760;DHT22;4919;48.792;9.202;2022-12-18T16:16:53;-4.30;99.90
9760;DHT22;4919;48.792;9.202;2022-12-18T16:19:20;-4.30;99.90
9760;DHT22;4919;48.792;9.202;2022-12-18T16:21:52;-4.30;99.90
9760;DHT22;4919;48.792;9.202;2022-12-18T16:24:21;-4.40;99.90
9760;DHT22;4919;48.792;9.202;2022-12-18T16:26:50;-4.40;99.90
9760;DHT22;4919;48.792;9.202;2022-12-18T16:29:20;-4.40;99.90
9760;DHT22;4919;48.792;9.202;2022-12-18T16:31:51;-4.50;99.90
9760;DHT22;4919;48.792;9.202;2022-12-18T16:34:26;-4.50;99.90
9760;DHT22;4919;48.792;9.202;2022-12-18T16:37:00;-4.50;99.90
9760;DHT22;4919;48.792;9.202;2022-12-18T16:39:32;-4.50;99.90
9760;DHT22;4919;48.792;9.202;2022-12-18T16:44:39;-4.60;99.90
9760;DHT22;4919;48.792;9.202;2022-12-18T16:47:07;-4.60;99.90
9760;DHT22;4919;48.792;9.202;2022-12-18T16:49:35;-4.70;99.90
9760;DHT22;4919;48.792;9.202;2022-12-18T16:52:03;-4.70;99.90
9760;DHT22;4919;48.792;9.202;2022-12-18T16:54:31;-4.80;99.90
9760;DHT22;4919;48.792;9.202;2022-12-18T16:57:00;-4.80;99.90
9760;DHT22;4919;48.792;9.202;2022-12-18T16:59:26;-4.90;99.90
9760;DHT22;4919;48.792;9.202;2022-12-18T17:01:55;-4.80;99.90
9760;DHT22;4919;48.792;9.202;2022-12-18T17:04:23;-4.90;99.90
9760;DHT22;4919;48.792;9.202;2022-12-18T17:06:50;-4.90;99.90
9760;DHT22;4919;48.792;9.202;2022-12-18T17:09:20;-4.90;99.90
9760;DHT22;4919;48.792;9.202;2022-12-18T17:11:56;-4.90;99.90
9760;DHT22;4919;48.792;9.202;2022-12-18T17:14:24;-5.00;99.90
9760;DHT22;4919;48.792;9.202;2022-12-18T17:16:52;-5.00;99.90
9760;DHT22;4919;48.792;9.202;2022-12-18T17:19:39;-5.00;99.90
9760;DHT22;4919;48.792;9.202;2022-12-18T17:22:06;-5.00;99.90
9760;DHT22;4919;48.792;9.202;2022-12-18T17:24:34;-5.10;99.90
9760;DHT22;4919;48.792;9.202;2022-12-18T17:27:02;-5.10;99.90
9760;DHT22;4919;48.792;9.202;2022-12-18T17:29:29;-5.10;99.90
9760;DHT22;4919;48.792;9.202;2022-12-18T17:31:56;-5.10;99.90
9760;DHT22;4919;48.792;9.202;2022-12-18T17:34:26;-5.10;99.90
9760;DHT22;4919;48.792;9.202;2022-12-18T17:36:53;-5.20;99.90
9760;DHT22;4919;48.792;9.202;2022-12-18T17:39:21;-5.20;99.90
9760;DHT22;4919;48.792;9.202;2022-12-18T17:41:48;-5.20;99.90
9760;DHT22;4919;48.792;9.202;2022-12-18T17:44:15;-5.20;99.90
9760;DHT22;4919;48.792;9.202;2022-12-18T17:46:43;-5.20;99.90
9760;DHT22;4919;48.792;9.202;2022-12-18T17:49:10;-5.20;99.90
9760;DHT22;4919;48.792;9.202;2022-12-18T17:51:38;-5.20;99.90
9760;DHT22;4919;48.792;9.202;2022-12-18T17:54:05;-5.10;99.90
9760;DHT22;4919;48.792;9.202;2022-12-18T17:56:32;-5.10;99.90
9760;DHT22;4919;48.792;9.202;2022-12-18T17:58:59;-5.10;99.90
9760;DHT22;4919;48.792;9.202;2022-12-18T18:01:27;-5.10;99.90
9760;DHT22;4919;48.792;9.202;2022-12-18T18:03:54;-5.10;99.90
9760;DHT22;4919;48.792;9.202;2022-12-18T18:06:26;-5.20;99.90
9760;DHT22;4919;48.792;9.202;2022-12-18T18:08:53;-5.20;99.90
9760;DHT22;4919;48.792;9.202;2022-12-18T18:11:22;-5.20;99.90
9760;DHT22;4919;48.792;9.202;2022-12-18T18:14:16;-5.20;99.90
9760;DHT22;4919;48.792;9.202;2022-12-18T18:16:46;-5.20;99.90
9760;DHT22;4919;48.792;9.202;2022-12-18T18:19:19;-5.20;99.90
9760;DHT22;4919;48.792;9.202;2022-12-18T18:21:48;-5.20;99.90
9760;DHT22;4919;48.792;9.202;2022-12-18T18:24:19;-5.20;99.90
9760;DHT22;4919;48.792;9.202;2022-12-18T18:26:46;-5.20;99.90
9760;DHT22;4919;48.792;9.202;2022-12-18T18:29:18;-5.20;99.90
9760;DHT22;4919;48.792;9.202;2022-12-18T18:31:46;-5.20;99.90
9760;DHT22;4919;48.792;9.202;2022-12-18T18:34:25;-5.10;99.90
9760;DHT22;4919;48.792;9.202;2022-12-18T18:36:53;-5.20;99.90
9760;DHT22;4919;48.792;9.202;2022-12-18T18:39:19;-5.20;99.90
9760;DHT22;4919;48.792;9.202;2022-12-18T18:41:47;-5.10;99.90
9760;DHT22;4919;48.792;9.202;2022-12-18T18:44:15;-5.20;99.90
9760;DHT22;4919;48.792;9.202;2022-12-18T18:46:43;-5.20;99.90
9760;DHT22;4919;48.792;9.202;2022-12-18T18:49:10;-5.30;99.90
9760;DHT22;4919;48.792;9.202;2022-12-18T18:51:40;-5.30;99.90
9760;DHT22;4919;48.792;9.202;2022-12-18T18:54:07;-5.30;99.90